sensor_id;sensor_type;location;lat;lon;timestamp;pressure;altitude;pressure_sealevel;temperature;humidity
45872;BME280;32333;55.844;-3.210;2023-06-10T00:01:48;99855.73;;;11.38;100.00
45872;BME280;32333;55.844;-3.210;2023-06-10T00:04:16;99856.75;;;11.79;100.00
45872;BME280;32333;55.844;-3.210;2023-06-10T00:06:44;99856.73;;;11.51;100.00
45872;BME280;32333;55.844;-3.210;2023-06-10T00:09:12;99856.25;;;10.82;100.00
45872;BME280;32333;55.844;-3.210;2023-06-10T00:11:39;99852.59;;;10.88;100.00
45872;BME280;32333;55.844;-3.210;2023-06-10T00:14:38;99848.34;;;11.31;100.00
45872;BME280;32333;55.844;-3.210;2023-06-10T00:17:06;99851.81;;;11.13;100.00
45872;BME280;32333;55.844;-3.210;2023-06-10T00:19:34;99853.92;;;10.07;100.00
45872;BME280;32333;55.844;-3.210;2023-06-10T00:22:02;99853.00;;;11.53;100.00
45872;BME280;32333;55.844;-3.210;2023-06-10T00:24:29;99856.16;;;10.67;100.00
45872;BME280;32333;55.844;-3.210;2023-06-10T00:26:57;99854.67;;;9.91;100.00
45872;BME280;32333;55.844;-3.210;2023-06-10T00:29:25;99854.89;;;9.73;100.00
45872;BME280;32333;55.844;-3.210;2023-06-10T00:31:52;99858.09;;;8.30;100.00
45872;BME280;32333;55.844;-3.210;2023-06-10T00:34:19;99849.49;;;9.29;100.00
45872;BME280;32333;55.844;-3.210;2023-06-10T00:36:47;99854.51;;;10.18;100.00
45872;BME280;32333;55.844;-3.210;2023-06-10T00:39:15;99855.35;;;8.86;100.00
45872;BME280;32333;55.844;-3.210;2023-06-10T00:41:43;99861.25;;;8.80;100.00
45872;BME280;32333;55.844;-3.210;2023-06-10T00:44:35;99858.34;;;9.97;100.00
45872;BME280;32333;55.844;-3.210;2023-06-10T00:47:03;99853.53;;;9.42;100.00
45872;BME280;32333;55.844;-3.210;2023-06-10T00:49:31;99853.83;;;10.05;100.00
45872;BME280;32333;55.844;-3.210;2023-06-10T00:51:59;99858.18;;;9.20;100.00
45872;BME280;32333;55.844;-3.210;2023-06-10T00:54:26;99862.54;;;8.37;100.00
45872;BME280;32333;55.844;-3.210;2023-06-10T00:56:54;99861.24;;;8.14;100.00
45872;BME280;32333;55.844;-3.210;2023-06-10T00:59:23;99863.15;;;8.76;100.00
45872;BME280;32333;55.844;-3.210;2023-06-10T01:01:50;99859.30;;;9.14;100.00
45872;BME280;32333;55.844;-3.210;2023-06-10T01:04:18;99868.30;;;8.89;100.00
45872;BME280;32333;55.844;-3.210;2023-06-10T01:06:52;99864.76;;;7.05;100.00
45872;BME280;32333;55.844;-3.210;2023-06-10T01:09:30;99869.23;;;8.85;100.00
45872;BME280;32333;55.844;-3.210;2023-06-10T01:14:36;99864.02;;;9.58;100.00
45872;BME280;32333;55.844;-3.210;2023-06-10T01:17:04;99860.98;;;9.35;100.00
45872;BME280;32333;55.844;-3.210;2023-06-10T01:19:32;99865.79;;;9.59;100.00
45872;BME280;32333;55.844;-3.210;2023-06-10T01:22:00;99875.17;;;8.84;100.00
45872;BME280;32333;55.844;-3.210;2023-06-10T01:24:27;99875.03;;;7.88;100.00
45872;BME280;32333;55.844;-3.210;2023-06-10T01:26:56;99873.52;;;8.46;100.00
45872;BME280;32333;55.844;-3.210;2023-06-10T01:29:33;99870.67;;;7.88;100.00
45872;BME280;32333;55.844;-3.210;2023-06-10T01:32:08;99865.85;;;9.23;100.00
45872;BME280;32333;55.844;-3.210;2023-06-10T01:34:39;99867.98;;;9.40;100.00
45872;BME280;32333;55.844;-3.210;2023-06-10T01:37:09;99866.88;;;10.04;100.00
45872;BME280;32333;55.844;-3.210;2023-06-10T01:39:40;99864.40;;;10.42;100.00
45872;BME280;32333;55.844;-3.210;2023-06-10T01:44:35;99863.43;;;10.46;100.00
45872;BME280;32333;55.844;-3.210;2023-06-10T01:47:03;99864.60;;;8.65;100.00
45872;BME280;32333;55.844;-3.210;2023-06-10T01:49:31;99860.80;;;10.10;100.00
45872;BME280;32333;55.844;-3.210;2023-06-10T01:51:59;99859.32;;;9.64;100.00
45872;BME280;32333;55.844;-3.210;2023-06-10T01:54:27;99866.91;;;8.30;100.00
45872;BME280;32333;55.844;-3.210;2023-06-10T01:56:54;99870.99;;;8.68;100.00
45872;BME280;32333;55.844;-3.210;2023-06-10T01:59:22;99863.51;;;9.81;100.00
45872;BME280;32333;55.844;-3.210;2023-06-10T02:01:50;99859.35;;;7.67;100.00
45872;BME280;32333;55.844;-3.210;2023-06-10T02:04:17;99865.95;;;8.70;100.00
45872;BME280;32333;55.844;-3.210;2023-06-10T02:06:44;99857.03;;;9.49;100.00
45872;BME280;32333;55.844;-3.210;2023-06-10T02:09:12;99857.55;;;9.47;100.00
45872;BME280;32333;55.844;-3.210;2023-06-10T02:11:40;99859.21;;;9.53;100.00
45872;BME280;32333;55.844;-3.210;2023-06-10T02:14:35;99854.92;;;10.12;100.00
45872;BME280;32333;55.844;-3.210;2023-06-10T02:17:03;99852.88;;;10.08;100.00
45872;BME280;32333;55.844;-3.210;2023-06-10T02:19:30;99856.06;;;9.80;100.00
45872;BME280;32333;55.844;-3.210;2023-06-10T02:21:58;99856.83;;;9.71;100.00
45872;BME280;32333;55.844;-3.210;2023-06-10T02:24:26;99858.59;;;10.10;100.00
45872;BME280;32333;55.844;-3.210;2023-06-10T02:26:53;99855.86;;;10.43;100.00
45872;BME280;32333;55.844;-3.210;2023-06-10T02:29:20;99851.73;;;10.82;100.00
45872;BME280;32333;55.844;-3.210;2023-06-10T02:31:48;99851.53;;;10.30;100.00
45872;BME280;32333;55.844;-3.210;2023-06-10T02:34:15;99852.22;;;10.98;100.00
45872;BME280;32333;55.844;-3.210;2023-06-10T02:36:42;99853.64;;;10.78;100.00
45872;BME280;32333;55.844;-3.210;2023-06-10T02:39:10;99852.28;;;10.70;100.00
45872;BME280;32333;55.844;-3.210;2023-06-10T02:41:37;99853.12;;;9.53;100.00
45872;BME280;32333;55.844;-3.210;2023-06-10T02:44:35;99851.34;;;10.26;100.00
45872;BME280;32333;55.844;-3.210;2023-06-10T02:47:03;99856.02;;;9.99;100.00
45872;BME280;32333;55.844;-3.210;2023-06-10T02:49:31;99851.87;;;10.11;100.00
45872;BME280;32333;55.844;-3.210;2023-06-10T02:51:59;99855.42;;;10.04;100.00
45872;BME280;32333;55.844;-3.210;2023-06-10T02:54:26;99851.57;;;9.64;100.00
45872;BME280;32333;55.844;-3.210;2023-06-10T02:56:54;99853.74;;;9.87;100.00
45872;BME280;32333;55.844;-3.210;2023-06-10T02:59:22;99851.47;;;9.81;100.00
45872;BME280;32333;55.844;-3.210;2023-06-10T03:01:50;99847.40;;;10.22;100.00
45872;BME280;32333;55.844;-3.210;2023-06-10T03:04:17;99849.33;;;8.64;100.00
45872;BME280;32333;55.844;-3.210;2023-06-10T03:06:44;99855.83;;;7.77;100.00
45872;BME280;32333;55.844;-3.210;2023-06-10T03:09:12;99853.69;;;7.17;100.00
45872;BME280;32333;55.844;-3.210;2023-06-10T03:11:39;99856.03;;;8.17;100.00
45872;BME280;32333;55.844;-3.210;2023-06-10T03:14:35;99844.35;;;9.23;100.00
45872;BME280;32333;55.844;-3.210;2023-06-10T03:17:03;99844.81;;;9.51;100.00
45872;BME280;32333;55.844;-3.210;2023-06-10T03:19:31;99841.23;;;10.14;100.00
45872;BME280;32333;55.844;-3.210;2023-06-10T03:22:08;99837.90;;;9.85;100.00
45872;BME280;32333;55.844;-3.210;2023-06-10T03:24:35;99834.80;;;10.22;100.00
45872;BME280;32333;55.844;-3.210;2023-06-10T03:27:03;99831.45;;;10.10;100.00
45872;BME280;32333;55.844;-3.210;2023-06-10T03:29:32;99831.99;;;9.35;100.00
45872;BME280;32333;55.844;-3.210;2023-06-10T03:31:59;99838.07;;;8.34;100.00
45872;BME280;32333;55.844;-3.210;2023-06-10T03:34:27;99832.81;;;10.17;100.00
45872;BME280;32333;55.844;-3.210;2023-06-10T03:36:54;99830.69;;;9.54;100.00
45872;BME280;32333;55.844;-3.210;2023-06-10T03:39:22;99830.64;;;9.52;100.00
45872;BME280;32333;55.844;-3.210;2023-06-10T03:41:49;99832.09;;;9.45;100.00
45872;BME280;32333;55.844;-3.210;2023-06-10T03:44:35;99831.84;;;9.39;100.00
45872;BME280;32333;55.844;-3.210;2023-06-10T03:47:03;99838.57;;;8.14;100.00
45872;BME280;32333;55.844;-3.210;2023-06-10T03:49:30;99836.98;;;7.50;100.00
45872;BME280;32333;55.844;-3.210;2023-06-10T03:51:57;99836.62;;;8.58;100.00
45872;BME280;32333;55.844;-3.210;2023-06-10T03:54:25;99837.04;;;7.66;100.00
45872;BME280;32333;55.844;-3.210;2023-06-10T03:56:52;99835.28;;;9.11;100.00
45872;BME280;32333;55.844;-3.210;2023-06-10T03:59:20;99843.37;;;8.50;100.00
45872;BME280;32333;55.844;-3.210;2023-06-10T04:01:47;99836.41;;;9.60;100.00
45872;BME280;32333;55.844;-3.210;2023-06-10T04:04:15;99835.52;;;8.70;100.00
45872;BME280;32333;55.844;-3.210;2023-06-10T04:06:42;99841.64;;;8.53;100.00
45872;BME280;32333;55.844;-3.210;2023-06-10T04:09:10;99840.53;;;8.86;100.00
45872;BME280;32333;55.844;-3.210;2023-06-10T04:11:37;99839.67;;;9.99;100.00
45872;BME280;32333;55.844;-3.210;2023-06-10T04:14:35;99839.20;;;9.89;100.00
45872;BME280;32333;55.844;-3.210;2023-06-10T04:17:04;99840.16;;;9.66;100.00
45872;BME280;32333;55.844;-3.210;2023-06-10T04:19:32;99839.53;;;9.33;100.00
45872;BME280;32333;55.844;-3.210;2023-06-10T04:22:01;99835.61;;;9.37;100.00
45872;BME280;32333;55.844;-3.210;2023-06-10T04:24:27;99833.05;;;8.57;100.00
45872;BME280;32333;55.844;-3.210;2023-06-10T04:26:55;99832.70;;;8.90;100.00
45872;BME280;32333;55.844;-3.210;2023-06-10T04:29:23;99831.50;;;9.13;100.00
45872;BME280;32333;55.844;-3.210;2023-06-10T04:31:51;99828.26;;;9.38;100.00
45872;BME280;32333;55.844;-3.210;2023-06-10T04:34:18;99827.19;;;10.76;100.00
45872;BME280;32333;55.844;-3.210;2023-06-10T04:36:45;99821.45;;;10.25;100.00
45872;BME280;32333;55.844;-3.210;2023-06-10T04:39:13;99818.36;;;11.08;100.00
45872;BME280;32333;55.844;-3.210;2023-06-10T04:41:40;99812.92;;;11.11;100.00
45872;BME280;32333;55.844;-3.210;2023-06-10T04:44:35;99812.67;;;13.01;100.00
45872;BME280;32333;55.844;-3.210;2023-06-10T04:47:02;99808.98;;;13.50;100.00
45872;BME280;32333;55.844;-3.210;2023-06-10T04:49:29;99809.99;;;13.92;100.00
45872;BME280;32333;55.844;-3.210;2023-06-10T04:51:57;99809.38;;;14.17;100.00
45872;BME280;32333;55.844;-3.210;2023-06-10T04:54:24;99817.15;;;14.73;100.00
45872;BME280;32333;55.844;-3.210;2023-06-10T04:56:52;99811.87;;;14.68;92.14
45872;BME280;32333;55.844;-3.210;2023-06-10T04:59:19;99808.68;;;15.11;91.15
45872;BME280;32333;55.844;-3.210;2023-06-10T05:01:48;99807.30;;;15.50;89.80
45872;BME280;32333;55.844;-3.210;2023-06-10T05:04:15;99803.63;;;15.30;92.26
45872;BME280;32333;55.844;-3.210;2023-06-10T05:06:42;99805.30;;;16.09;87.14
45872;BME280;32333;55.844;-3.210;2023-06-10T05:09:10;99809.35;;;15.35;88.99
45872;BME280;32333;55.844;-3.210;2023-06-10T05:11:37;99811.24;;;14.98;86.31
45872;BME280;32333;55.844;-3.210;2023-06-10T05:14:35;99806.42;;;15.71;87.45
45872;BME280;32333;55.844;-3.210;2023-06-10T05:17:04;99806.20;;;15.27;84.01
45872;BME280;32333;55.844;-3.210;2023-06-10T05:19:31;99809.08;;;14.85;85.59
45872;BME280;32333;55.844;-3.210;2023-06-10T05:21:58;99805.21;;;15.79;82.40
45872;BME280;32333;55.844;-3.210;2023-06-10T05:24:26;99805.06;;;16.26;79.11
45872;BME280;32333;55.844;-3.210;2023-06-10T05:26:53;99806.55;;;14.13;87.62
45872;BME280;32333;55.844;-3.210;2023-06-10T05:29:21;99806.08;;;14.41;84.10
45872;BME280;32333;55.844;-3.210;2023-06-10T05:31:48;99801.41;;;15.47;82.49
45872;BME280;32333;55.844;-3.210;2023-06-10T05:34:15;99802.75;;;14.77;83.30
45872;BME280;32333;55.844;-3.210;2023-06-10T05:36:43;99798.53;;;14.45;85.89
45872;BME280;32333;55.844;-3.210;2023-06-10T05:39:10;99797.07;;;14.07;90.40
45872;BME280;32333;55.844;-3.210;2023-06-10T05:41:38;99800.77;;;13.88;93.53
45872;BME280;32333;55.844;-3.210;2023-06-10T05:44:36;99805.34;;;13.36;96.95
45872;BME280;32333;55.844;-3.210;2023-06-10T05:47:03;99809.37;;;10.19;100.00
45872;BME280;32333;55.844;-3.210;2023-06-10T05:49:31;99808.72;;;12.73;100.00
45872;BME280;32333;55.844;-3.210;2023-06-10T05:51:59;99811.28;;;12.57;100.00
45872;BME280;32333;55.844;-3.210;2023-06-10T05:54:26;99812.02;;;13.20;100.00
45872;BME280;32333;55.844;-3.210;2023-06-10T05:56:53;99817.11;;;12.51;100.00
45872;BME280;32333;55.844;-3.210;2023-06-10T05:59:22;99816.32;;;11.89;100.00
45872;BME280;32333;55.844;-3.210;2023-06-10T06:01:49;99813.09;;;11.77;100.00
45872;BME280;32333;55.844;-3.210;2023-06-10T06:04:16;99814.73;;;11.99;100.00
45872;BME280;32333;55.844;-3.210;2023-06-10T06:06:44;99814.98;;;10.75;100.00
45872;BME280;32333;55.844;-3.210;2023-06-10T06:09:11;99813.98;;;11.67;100.00
45872;BME280;32333;55.844;-3.210;2023-06-10T06:11:38;99816.14;;;11.57;100.00
45872;BME280;32333;55.844;-3.210;2023-06-10T06:14:38;99816.46;;;11.01;100.00
45872;BME280;32333;55.844;-3.210;2023-06-10T06:17:06;99815.64;;;10.27;100.00
45872;BME280;32333;55.844;-3.210;2023-06-10T06:19:34;99814.29;;;11.27;100.00
45872;BME280;32333;55.844;-3.210;2023-06-10T06:22:01;99811.67;;;10.39;100.00
45872;BME280;32333;55.844;-3.210;2023-06-10T06:24:28;99812.96;;;9.90;100.00
45872;BME280;32333;55.844;-3.210;2023-06-10T06:26:56;99815.20;;;11.79;100.00
45872;BME280;32333;55.844;-3.210;2023-06-10T06:29:23;99816.69;;;11.89;100.00
45872;BME280;32333;55.844;-3.210;2023-06-10T06:31:50;99817.61;;;11.53;100.00
45872;BME280;32333;55.844;-3.210;2023-06-10T06:34:18;99820.17;;;11.28;100.00
45872;BME280;32333;55.844;-3.210;2023-06-10T06:36:46;99819.41;;;11.34;100.00
45872;BME280;32333;55.844;-3.210;2023-06-10T06:39:13;99818.29;;;10.95;100.00
45872;BME280;32333;55.844;-3.210;2023-06-10T06:41:41;99821.55;;;10.91;100.00
45872;BME280;32333;55.844;-3.210;2023-06-10T06:44:36;99814.18;;;11.03;100.00
45872;BME280;32333;55.844;-3.210;2023-06-10T06:47:04;99813.26;;;10.37;100.00
45872;BME280;32333;55.844;-3.210;2023-06-10T06:49:31;99818.03;;;10.12;100.00
45872;BME280;32333;55.844;-3.210;2023-06-10T06:52:00;99820.06;;;11.43;100.00
45872;BME280;32333;55.844;-3.210;2023-06-10T06:54:27;99817.51;;;10.55;100.00
45872;BME280;32333;55.844;-3.210;2023-06-10T06:56:54;99814.74;;;10.88;100.00
45872;BME280;32333;55.844;-3.210;2023-06-10T06:59:23;99815.79;;;10.96;100.00
45872;BME280;32333;55.844;-3.210;2023-06-10T07:01:50;99816.56;;;11.77;100.00
45872;BME280;32333;55.844;-3.210;2023-06-10T07:04:17;99813.89;;;11.65;100.00
45872;BME280;32333;55.844;-3.210;2023-06-10T07:06:44;99818.60;;;12.18;100.00
45872;BME280;32333;55.844;-3.210;2023-06-10T07:09:12;99815.88;;;11.53;100.00
45872;BME280;32333;55.844;-3.210;2023-06-10T07:11:39;99810.88;;;11.60;100.00
45872;BME280;32333;55.844;-3.210;2023-06-10T07:14:36;99813.13;;;12.20;100.00
45872;BME280;32333;55.844;-3.210;2023-06-10T07:17:04;99812.30;;;10.99;100.00
45872;BME280;32333;55.844;-3.210;2023-06-10T07:19:31;99812.86;;;12.14;100.00
45872;BME280;32333;55.844;-3.210;2023-06-10T07:21:59;99811.62;;;12.60;100.00
45872;BME280;32333;55.844;-3.210;2023-06-10T07:24:27;99813.55;;;12.07;100.00
45872;BME280;32333;55.844;-3.210;2023-06-10T07:26:54;99812.07;;;13.29;100.00
45872;BME280;32333;55.844;-3.210;2023-06-10T07:29:21;99815.48;;;13.16;100.00
45872;BME280;32333;55.844;-3.210;2023-06-10T07:31:49;99814.45;;;12.17;100.00
45872;BME280;32333;55.844;-3.210;2023-06-10T07:34:16;99812.41;;;13.48;100.00
45872;BME280;32333;55.844;-3.210;2023-06-10T07:36:43;99809.39;;;13.52;100.00
45872;BME280;32333;55.844;-3.210;2023-06-10T07:39:11;99804.99;;;13.13;100.00
45872;BME280;32333;55.844;-3.210;2023-06-10T07:41:39;99801.31;;;13.49;100.00
45872;BME280;32333;55.844;-3.210;2023-06-10T07:44:35;99804.39;;;14.90;100.00
45872;BME280;32333;55.844;-3.210;2023-06-10T07:47:02;99799.05;;;15.02;97.05
45872;BME280;32333;55.844;-3.210;2023-06-10T07:49:30;99801.93;;;15.15;99.32
45872;BME280;32333;55.844;-3.210;2023-06-10T07:51:58;99801.11;;;14.59;96.19
45872;BME280;32333;55.844;-3.210;2023-06-10T07:54:25;99800.96;;;14.96;95.71
45872;BME280;32333;55.844;-3.210;2023-06-10T07:56:53;99798.36;;;15.77;94.49
45872;BME280;32333;55.844;-3.210;2023-06-10T07:59:21;99796.28;;;15.90;92.75
45872;BME280;32333;55.844;-3.210;2023-06-10T08:01:48;99797.50;;;15.62;93.36
45872;BME280;32333;55.844;-3.210;2023-06-10T08:04:16;99796.70;;;16.11;92.41
45872;BME280;32333;55.844;-3.210;2023-06-10T08:06:45;99797.06;;;15.78;88.18
45872;BME280;32333;55.844;-3.210;2023-06-10T08:09:12;99798.79;;;15.52;92.96
45872;BME280;32333;55.844;-3.210;2023-06-10T08:11:40;99804.06;;;14.97;95.89
45872;BME280;32333;55.844;-3.210;2023-06-10T08:14:35;99806.22;;;15.66;94.68
45872;BME280;32333;55.844;-3.210;2023-06-10T08:17:02;99803.71;;;16.11;90.45
45872;BME280;32333;55.844;-3.210;2023-06-10T08:19:30;99805.68;;;14.06;100.00
45872;BME280;32333;55.844;-3.210;2023-06-10T08:21:58;99802.78;;;14.61;99.76
45872;BME280;32333;55.844;-3.210;2023-06-10T08:24:25;99797.79;;;14.83;100.00
45872;BME280;32333;55.844;-3.210;2023-06-10T08:26:52;99796.82;;;14.34;100.00
45872;BME280;32333;55.844;-3.210;2023-06-10T08:29:21;99798.32;;;15.61;98.86
45872;BME280;32333;55.844;-3.210;2023-06-10T08:31:48;99800.40;;;16.00;100.00
45872;BME280;32333;55.844;-3.210;2023-06-10T08:34:15;99797.15;;;15.22;99.59
45872;BME280;32333;55.844;-3.210;2023-06-10T08:36:43;99796.80;;;15.12;100.00
45872;BME280;32333;55.844;-3.210;2023-06-10T08:39:10;99792.80;;;15.48;99.19
45872;BME280;32333;55.844;-3.210;2023-06-10T08:41:43;99794.46;;;14.59;100.00
45872;BME280;32333;55.844;-3.210;2023-06-10T08:44:35;99791.43;;;14.43;100.00
45872;BME280;32333;55.844;-3.210;2023-06-10T08:47:06;99790.58;;;15.16;100.00
45872;BME280;32333;55.844;-3.210;2023-06-10T08:49:35;99792.50;;;15.56;100.00
45872;BME280;32333;55.844;-3.210;2023-06-10T08:52:06;99788.01;;;15.59;96.99
45872;BME280;32333;55.844;-3.210;2023-06-10T08:54:35;99788.70;;;16.15;99.22
45872;BME280;32333;55.844;-3.210;2023-06-10T08:57:06;99791.87;;;15.42;100.00
45872;BME280;32333;55.844;-3.210;2023-06-10T08:59:33;99793.14;;;15.84;98.17
45872;BME280;32333;55.844;-3.210;2023-06-10T09:02:03;99789.62;;;16.02;98.54
45872;BME280;32333;55.844;-3.210;2023-06-10T09:04:31;99792.52;;;16.29;97.84
45872;BME280;32333;55.844;-3.210;2023-06-10T09:06:59;99788.55;;;15.95;98.06
45872;BME280;32333;55.844;-3.210;2023-06-10T09:09:28;99789.21;;;15.96;95.86
45872;BME280;32333;55.844;-3.210;2023-06-10T09:11:56;99787.85;;;16.89;94.81
45872;BME280;32333;55.844;-3.210;2023-06-10T09:14:36;99787.93;;;16.19;95.33
45872;BME280;32333;55.844;-3.210;2023-06-10T09:17:05;99785.51;;;16.34;95.86
45872;BME280;32333;55.844;-3.210;2023-06-10T09:19:32;99782.28;;;17.06;97.60
45872;BME280;32333;55.844;-3.210;2023-06-10T09:22:00;99780.43;;;17.60;93.12
45872;BME280;32333;55.844;-3.210;2023-06-10T09:24:28;99778.77;;;16.80;95.33
45872;BME280;32333;55.844;-3.210;2023-06-10T09:27:03;99778.91;;;18.45;92.61
45872;BME280;32333;55.844;-3.210;2023-06-10T09:29:32;99776.17;;;18.42;89.52
45872;BME280;32333;55.844;-3.210;2023-06-10T09:31:59;99772.81;;;17.73;90.14
45872;BME280;32333;55.844;-3.210;2023-06-10T09:34:28;99770.54;;;19.57;85.00
45872;BME280;32333;55.844;-3.210;2023-06-10T09:36:56;99766.63;;;17.34;88.85
45872;BME280;32333;55.844;-3.210;2023-06-10T09:39:24;99774.65;;;18.26;85.07
45872;BME280;32333;55.844;-3.210;2023-06-10T09:41:51;99773.16;;;17.10;90.95
45872;BME280;32333;55.844;-3.210;2023-06-10T09:44:35;99768.35;;;18.02;89.53
45872;BME280;32333;55.844;-3.210;2023-06-10T09:47:02;99768.58;;;18.27;87.43
45872;BME280;32333;55.844;-3.210;2023-06-10T09:49:31;99768.44;;;18.11;90.08
45872;BME280;32333;55.844;-3.210;2023-06-10T09:51:59;99770.20;;;19.04;86.06
45872;BME280;32333;55.844;-3.210;2023-06-10T09:54:32;99767.53;;;18.70;88.00
45872;BME280;32333;55.844;-3.210;2023-06-10T09:56:59;99772.28;;;18.36;91.13
45872;BME280;32333;55.844;-3.210;2023-06-10T09:59:35;99766.11;;;18.15;93.77
45872;BME280;32333;55.844;-3.210;2023-06-10T10:02:05;99758.64;;;17.88;95.54
45872;BME280;32333;55.844;-3.210;2023-06-10T10:04:35;99766.42;;;16.37;100.00
45872;BME280;32333;55.844;-3.210;2023-06-10T10:07:04;99775.64;;;16.80;100.00
45872;BME280;32333;55.844;-3.210;2023-06-10T10:09:32;99775.08;;;16.80;100.00
45872;BME280;32333;55.844;-3.210;2023-06-10T10:12:00;99773.88;;;16.41;100.00
45872;BME280;32333;55.844;-3.210;2023-06-10T10:14:37;99774.76;;;16.65;100.00
45872;BME280;32333;55.844;-3.210;2023-06-10T10:17:09;99773.07;;;16.84;100.00
45872;BME280;32333;55.844;-3.210;2023-06-10T10:19:42;99767.20;;;17.33;100.00
45872;BME280;32333;55.844;-3.210;2023-06-10T10:22:16;99759.72;;;18.55;100.00
45872;BME280;32333;55.844;-3.210;2023-06-10T10:24:49;99760.51;;;18.67;100.00
45872;BME280;32333;55.844;-3.210;2023-06-10T10:27:20;99760.87;;;18.03;100.00
45872;BME280;32333;55.844;-3.210;2023-06-10T10:29:51;99763.15;;;18.07;100.00
45872;BME280;32333;55.844;-3.210;2023-06-10T10:32:24;99766.88;;;17.82;100.00
45872;BME280;32333;55.844;-3.210;2023-06-10T10:35:01;99768.46;;;16.03;100.00
45872;BME280;32333;55.844;-3.210;2023-06-10T10:37:30;99763.82;;;15.69;100.00
45872;BME280;32333;55.844;-3.210;2023-06-10T10:40:00;99764.63;;;15.30;100.00
45872;BME280;32333;55.844;-3.210;2023-06-10T10:44:35;99763.67;;;16.29;100.00
45872;BME280;32333;55.844;-3.210;2023-06-10T10:47:03;99764.81;;;16.57;100.00
45872;BME280;32333;55.844;-3.210;2023-06-10T10:49:35;99762.53;;;15.59;100.00
45872;BME280;32333;55.844;-3.210;2023-06-10T10:52:04;99755.42;;;16.20;100.00
45872;BME280;32333;55.844;-3.210;2023-06-10T10:54:34;99757.71;;;16.69;100.00
45872;BME280;32333;55.844;-3.210;2023-06-10T10:57:18;99755.48;;;16.71;100.00
45872;BME280;32333;55.844;-3.210;2023-06-10T10:59:52;99763.35;;;17.02;100.00
45872;BME280;32333;55.844;-3.210;2023-06-10T11:02:33;99755.06;;;17.64;100.00
45872;BME280;32333;55.844;-3.210;2023-06-10T11:05:01;99749.02;;;18.68;100.00
45872;BME280;32333;55.844;-3.210;2023-06-10T11:07:32;99744.53;;;18.10;100.00
45872;BME280;32333;55.844;-3.210;2023-06-10T11:10:02;99749.05;;;18.00;100.00
45872;BME280;32333;55.844;-3.210;2023-06-10T11:14:36;99741.72;;;19.25;100.00
45872;BME280;32333;55.844;-3.210;2023-06-10T11:17:18;99743.15;;;18.74;100.00
45872;BME280;32333;55.844;-3.210;2023-06-10T11:19:46;99733.10;;;19.64;96.80
45872;BME280;32333;55.844;-3.210;2023-06-10T11:22:17;99731.32;;;19.24;98.81
45872;BME280;32333;55.844;-3.210;2023-06-10T11:24:47;99735.30;;;19.80;97.11
45872;BME280;32333;55.844;-3.210;2023-06-10T11:27:17;99735.50;;;18.89;98.74
45872;BME280;32333;55.844;-3.210;2023-06-10T11:30:20;99725.41;;;19.22;100.00
45872;BME280;32333;55.844;-3.210;2023-06-10T11:32:51;99719.54;;;19.25;99.27
45872;BME280;32333;55.844;-3.210;2023-06-10T11:35:19;99717.17;;;18.09;100.00
45872;BME280;32333;55.844;-3.210;2023-06-10T11:37:47;99705.44;;;19.25;98.50
45872;BME280;32333;55.844;-3.210;2023-06-10T11:40:14;99709.89;;;18.74;100.00
45872;BME280;32333;55.844;-3.210;2023-06-10T11:44:35;99710.99;;;19.68;99.11
45872;BME280;32333;55.844;-3.210;2023-06-10T11:47:03;99708.18;;;18.99;100.00
45872;BME280;32333;55.844;-3.210;2023-06-10T11:49:31;99706.07;;;19.68;95.96
45872;BME280;32333;55.844;-3.210;2023-06-10T11:51:58;99707.86;;;20.17;96.43
45872;BME280;32333;55.844;-3.210;2023-06-10T11:54:25;99706.62;;;17.82;100.00
45872;BME280;32333;55.844;-3.210;2023-06-10T11:56:57;99703.37;;;19.66;97.91
45872;BME280;32333;55.844;-3.210;2023-06-10T11:59:27;99698.20;;;19.68;98.33
45872;BME280;32333;55.844;-3.210;2023-06-10T12:01:56;99698.71;;;19.38;100.00
45872;BME280;32333;55.844;-3.210;2023-06-10T12:04:23;99697.25;;;18.94;100.00
45872;BME280;32333;55.844;-3.210;2023-06-10T12:06:52;99695.54;;;18.78;100.00
45872;BME280;32333;55.844;-3.210;2023-06-10T12:09:21;99701.84;;;18.07;100.00
45872;BME280;32333;55.844;-3.210;2023-06-10T12:11:51;99699.27;;;17.71;100.00
45872;BME280;32333;55.844;-3.210;2023-06-10T12:14:53;99698.46;;;18.56;100.00
45872;BME280;32333;55.844;-3.210;2023-06-10T12:17:21;99691.93;;;18.92;100.00
45872;BME280;32333;55.844;-3.210;2023-06-10T12:19:48;99690.72;;;19.06;100.00
45872;BME280;32333;55.844;-3.210;2023-06-10T12:22:17;99695.61;;;18.34;100.00
45872;BME280;32333;55.844;-3.210;2023-06-10T12:24:56;99692.51;;;17.41;100.00
45872;BME280;32333;55.844;-3.210;2023-06-10T12:27:26;99690.03;;;17.93;100.00
45872;BME280;32333;55.844;-3.210;2023-06-10T12:29:53;99693.01;;;18.09;100.00
45872;BME280;32333;55.844;-3.210;2023-06-10T12:32:20;99689.24;;;17.82;100.00
45872;BME280;32333;55.844;-3.210;2023-06-10T12:34:49;99686.58;;;17.57;100.00
45872;BME280;32333;55.844;-3.210;2023-06-10T12:37:16;99681.24;;;17.67;100.00
45872;BME280;32333;55.844;-3.210;2023-06-10T12:39:51;99678.83;;;17.65;100.00
45872;BME280;32333;55.844;-3.210;2023-06-10T12:44:38;99679.72;;;18.73;100.00
45872;BME280;32333;55.844;-3.210;2023-06-10T12:47:10;99680.17;;;18.35;100.00
45872;BME280;32333;55.844;-3.210;2023-06-10T12:49:38;99671.54;;;16.47;100.00
45872;BME280;32333;55.844;-3.210;2023-06-10T12:52:06;99673.04;;;17.38;100.00
45872;BME280;32333;55.844;-3.210;2023-06-10T12:54:34;99672.04;;;17.33;100.00
45872;BME280;32333;55.844;-3.210;2023-06-10T12:57:02;99673.70;;;16.43;100.00
45872;BME280;32333;55.844;-3.210;2023-06-10T12:59:31;99674.29;;;15.95;100.00
45872;BME280;32333;55.844;-3.210;2023-06-10T13:01:58;99666.00;;;16.35;100.00
45872;BME280;32333;55.844;-3.210;2023-06-10T13:04:25;99667.15;;;15.86;100.00
45872;BME280;32333;55.844;-3.210;2023-06-10T13:06:52;99664.15;;;17.35;100.00
45872;BME280;32333;55.844;-3.210;2023-06-10T13:09:19;99658.27;;;17.12;100.00
45872;BME280;32333;55.844;-3.210;2023-06-10T13:11:46;99653.60;;;16.76;100.00
45872;BME280;32333;55.844;-3.210;2023-06-10T13:14:35;99648.69;;;17.40;100.00